CYXQ

Beaver Creek Airport

Beaver Creek, , Canada
METAR CYXQ 222100Z 12005KT 090V180 30SM FEW040 OVC200 06/M08 A2989 RMK SC1CS8 SC TR HALO SLP156
Observed Flight Rules
Apr-22 @ 21:00 UTC (an hour ago) Visual Flight Rules
Wind Visibility Clouds
120° at 5 knots 30 miles
  • Few at 4,000' AGL
  • Overcast at 20,000' AGL
Temperatures Readings
Current 6°C / 43°F
Dewpoint -8°C / 18°F
Humidity 36%
Altimeter 29.89" Hg
Pressure 1015.6 hPa
Elevation 649
METAR CYXQ 222100Z 12005KT 090V180 30SM FEW040 OVC200 06/M08 A2989 RMK SC1CS8 SC TR HALO SLP156
Observed Flight Rules
Apr-22 @ 21:00 UTC
(an hour ago)
VFR
Wind Visibility
120° at 5 knots 30 miles
Clouds
  • Few at 4,000' AGL
  • Overcast at 20,000' AGL
Temperature Dewpoint
6°C / 43°F -8°C / 18°F
Humidity Altimeter Pressure
36% 29.89" Hg 1015.6 hPa